Time;durP1;ratioP1;P1;durP2;ratioP2;P2;SDS_P1;SDS_P2;PMS_P1;PMS_P2;Temp;Humidity;BMP_temperature;BMP_pressure;BME280_temperature;BME280_humidity;BME280_pressure;Samples;Min_cycle;Max_cycle;Signal;HPM_P1;HPM_P2
2023/03/02 00:00:26;;;;;;;8.95;2.63;;;;;;;2.00;52.57;100524.13;6247685;28;20045;-75
2023/03/02 00:03:27;;;;;;;4.68;1.90;;;;;;;2.25;53.15;100522.81;6229817;28;20084;-75
2023/03/02 00:06:30;;;;;;;3.90;1.53;;;;;;;2.20;52.59;100521.19;6229526;28;20046;-75
2023/03/02 00:09:31;;;;;;;3.60;2.03;;;;;;;2.06;52.26;100522.31;6229316;28;20042;-75
2023/03/02 00:12:33;;;;;;;6.15;2.78;;;;;;;1.94;52.67;100523.41;6229316;28;20068;-75
2023/03/02 00:15:33;;;;;;;5.87;2.70;;;;;;;1.97;52.17;100513.88;6246833;28;20053;-75
2023/03/02 00:18:34;;;;;;;3.42;2.55;;;;;;;1.88;53.48;100513.22;6229185;28;20042;-75
2023/03/02 00:21:35;;;;;;;5.45;2.10;;;;;;;1.95;52.75;100510.47;6229217;28;20064;-75
2023/03/02 00:24:38;;;;;;;7.05;2.70;;;;;;;1.87;53.12;100503.78;6229137;28;20072;-75
2023/03/02 00:27:39;;;;;;;5.10;2.45;;;;;;;1.73;53.18;100504.88;6246661;28;20049;-75
2023/03/02 00:30:42;;;;;;;7.88;2.88;;;;;;;1.61;53.06;100503.38;6246685;28;20048;-75
2023/03/02 00:33:43;;;;;;;4.13;2.28;;;;;;;1.74;53.83;100504.00;6228966;28;20045;-75
2023/03/02 00:36:44;;;;;;;5.55;2.25;;;;;;;1.67;52.96;100502.41;6246275;28;20106;-75
2023/03/02 00:39:45;;;;;;;6.18;2.53;;;;;;;1.65;53.08;100500.72;6246388;28;20050;-75
2023/03/02 00:42:45;;;;;;;3.40;2.22;;;;;;;1.68;53.62;100485.25;6246312;28;20037;-75
2023/03/02 00:45:46;;;;;;;5.90;2.35;;;;;;;1.66;53.17;100495.56;6246298;28;20495;-75
2023/03/02 00:48:48;;;;;;;4.38;2.38;;;;;;;1.57;52.66;100501.72;6228726;28;20120;-75
2023/03/02 00:51:52;;;;;;;3.05;2.45;;;;;;;1.60;52.85;100493.94;6228845;28;20068;-75
2023/03/02 00:54:52;;;;;;;6.10;2.60;;;;;;;1.72;52.78;100481.75;6246184;28;20041;-75
2023/03/02 00:57:56;;;;;;;2.55;1.98;;;;;;;1.72;52.45;100468.88;6246057;28;20579;-75
2023/03/02 01:00:57;;;;;;;3.90;2.17;;;;;;;1.75;52.85;100472.25;6246073;28;20048;-75
2023/03/02 01:03:58;;;;;;;3.88;2.25;;;;;;;1.60;53.29;100469.94;6245919;28;20042;-75
2023/03/02 01:07:04;;;;;;;7.40;2.30;;;;;;;1.58;53.84;100477.69;6228382;28;20060;-75
2023/03/02 01:10:05;;;;;;;7.78;2.45;;;;;;;1.56;53.11;100478.59;6227695;28;20125;-75
2023/03/02 01:13:08;;;;;;;8.20;1.92;;;;;;;1.51;53.21;100464.97;6228436;28;20485;-75
2023/03/02 01:16:09;;;;;;;6.03;1.90;;;;;;;1.51;52.63;100464.97;6245735;28;20056;-75
2023/03/02 01:19:10;;;;;;;4.13;2.05;;;;;;;1.44;53.48;100455.66;6227964;28;20049;-75
2023/03/02 01:22:11;;;;;;;3.92;2.40;;;;;;;1.49;53.48;100459.84;6228046;28;20378;-70
2023/03/02 01:25:14;;;;;;;3.58;2.42;;;;;;;1.39;53.23;100461.72;6244178;28;20048;-70
2023/03/02 01:28:15;;;;;;;2.78;1.75;;;;;;;1.35;53.34;100449.78;6244163;28;20046;-70
2023/03/02 01:31:16;;;;;;;3.60;1.83;;;;;;;1.36;53.92;100459.22;6244091;28;20052;-70
2023/03/02 01:34:17;;;;;;;10.88;3.78;;;;;;;1.43;53.23;100446.25;6226437;28;20059;-70
2023/03/02 01:37:19;;;;;;;8.23;3.03;;;;;;;1.49;53.17;100456.44;6243966;28;20553;-70
2023/03/02 01:40:20;;;;;;;4.68;3.28;;;;;;;1.44;53.72;100450.50;6227729;28;20128;-75
2023/03/02 01:43:21;;;;;;;4.47;2.15;;;;;;;1.27;53.53;100449.06;6227744;28;20041;-75
2023/03/02 01:46:25;;;;;;;7.38;3.13;;;;;;;1.28;53.88;100455.91;6245216;28;20485;-75
2023/03/02 01:49:26;;;;;;;5.75;2.30;;;;;;;1.29;53.74;100446.47;6227424;28;20037;-75
2023/03/02 01:52:30;;;;;;;3.13;1.73;;;;;;;1.27;53.99;100453.38;6244965;28;20492;-75
2023/03/02 01:55:33;;;;;;;6.70;2.83;;;;;;;1.22;54.02;100445.72;6227464;28;20048;-75
2023/03/02 01:58:36;;;;;;;3.03;2.13;;;;;;;1.16;54.23;100441.53;6244932;28;20117;-75
2023/03/02 02:01:40;;;;;;;3.38;2.70;;;;;;;1.16;54.18;100443.25;6227623;28;20041;-75
2023/03/02 02:04:44;;;;;;;2.65;1.73;;;;;;;1.13;54.22;100435.59;6227145;28;20046;-75
2023/03/02 02:07:47;;;;;;;4.88;2.75;;;;;;;1.14;54.46;100439.88;6227200;28;20072;-74
2023/03/02 02:10:48;;;;;;;5.35;2.50;;;;;;;1.17;54.91;100432.09;6244735;28;20045;-75
2023/03/02 02:13:54;;;;;;;5.20;2.10;;;;;;;1.10;55.89;100420.22;6244727;28;20048;-75
2023/03/02 02:16:57;;;;;;;3.55;2.10;;;;;;;1.06;55.45;100421.16;6227026;28;20049;-74
2023/03/02 02:20:34;;;;;;;7.35;2.80;;;;;;;1.03;55.20;100423.75;6244314;28;20042;-75
2023/03/02 02:23:47;;;;;;;4.30;2.20;;;;;;;1.06;55.02;100429.69;6226942;28;20052;-75
2023/03/02 02:26:48;;;;;;;;;;;;;;;1.11;55.04;100429.63;6227263;28;20038;-75
2023/03/02 02:29:51;;;;;;;2.95;1.83;;;;;;;1.15;54.52;100428.69;6244429;28;19921;-75
2023/03/02 02:32:54;;;;;;;5.93;2.72;;;;;;;1.17;54.33;100417.53;6226895;28;20048;-75
2023/03/02 02:36:00;;;;;;;;;;;;;;;1.20;54.92;100426.91;6226977;28;20061;-75
2023/03/02 02:39:04;;;;;;;0.70;0.52;;;;;;;1.07;54.72;100427.97;6226826;28;19927;-75
2023/03/02 02:42:14;;;;;;;5.70;2.63;;;;;;;1.31;54.97;100427.56;6244184;28;20041;-75
2023/03/02 02:45:26;;;;;;;7.93;1.85;;;;;;;1.29;54.40;100436.19;6226678;28;20533;-75
2023/03/02 02:48:30;;;;;;;1.90;1.60;;;;;;;1.18;54.53;100434.66;6226650;28;20049;-75
2023/03/02 02:51:33;;;;;;;4.10;1.92;;;;;;;1.28;55.07;100432.78;6244212;28;20048;-75
2023/03/02 02:54:35;;;;;;;2.97;1.95;;;;;;;1.21;54.97;100431.16;6244091;28;20427;-75
2023/03/02 02:57:36;;;;;;;5.32;2.53;;;;;;;1.19;55.34;100427.78;6226367;28;20473;-75
2023/03/02 03:00:40;;;;;;;3.40;2.97;;;;;;;1.18;55.64;100423.53;6226469;28;20086;-75
2023/03/02 03:03:48;;;;;;;2.55;1.77;;;;;;;1.24;55.86;100417.44;6226250;28;20279;-75
2023/03/02 03:06:59;;;;;;;3.88;2.92;;;;;;;1.24;56.61;100414.88;6226351;28;20042;-75
2023/03/02 03:10:07;;;;;;;5.32;3.30;;;;;;;1.15;56.52;100410.72;6243722;28;20126;-75
2023/03/02 03:13:11;;;;;;;7.32;3.17;;;;;;;1.00;56.87;100416.94;6226583;28;20038;-75
2023/03/02 03:16:15;;;;;;;3.70;1.90;;;;;;;1.11;56.78;100406.50;6226095;28;20378;-75
2023/03/02 03:19:17;;;;;;;3.83;2.30;;;;;;;1.22;56.86;100424.34;6243666;28;20041;-75
2023/03/02 03:22:20;;;;;;;4.47;2.33;;;;;;;1.10;56.76;100415.09;6226092;28;20404;-75
2023/03/02 03:25:25;;;;;;;8.25;3.25;;;;;;;1.05;56.73;100422.88;6225930;28;20068;-75
2023/03/02 03:28:27;;;;;;;6.35;2.80;;;;;;;0.98;57.06;100422.09;6243581;28;20069;-75
2023/03/02 03:31:28;;;;;;;7.82;2.65;;;;;;;1.03;57.39;100422.06;6225976;28;20054;-75
2023/03/02 03:34:30;;;;;;;8.88;2.63;;;;;;;0.99;57.03;100422.97;6247015;28;20038;-75
2023/03/02 03:37:31;;;;;;;6.63;3.38;;;;;;;1.01;57.32;100413.53;6229961;28;20504;-75
2023/03/02 03:40:33;;;;;;;10.95;3.35;;;;;;;0.96;57.68;100416.16;6230153;28;20114;-75
2023/03/02 03:43:34;;;;;;;3.63;2.83;;;;;;;1.01;57.43;100410.97;6229949;28;20053;-75
2023/03/02 03:46:34;;;;;;;1.95;1.50;;;;;;;0.99;57.89;100412.69;6229828;28;20396;-75
2023/03/02 03:49:35;;;;;;;6.40;2.75;;;;;;;0.99;57.37;100416.13;6247417;28;20065;-75
2023/03/02 03:52:36;;;;;;;2.75;1.92;;;;;;;0.99;57.44;100410.97;6229755;28;20034;-75
2023/03/02 03:55:37;;;;;;;4.75;2.22;;;;;;;0.95;57.53;100414.47;6247281;28;20106;-75
2023/03/02 03:58:38;;;;;;;4.45;2.70;;;;;;;0.96;57.80;100410.16;6229593;28;20056;-75
2023/03/02 04:01:42;;;;;;;5.60;2.50;;;;;;;0.82;58.61;100410.38;6229679;28;20072;-75
2023/03/02 04:04:44;;;;;;;6.25;3.35;;;;;;;0.79;58.52;100413.84;6229473;28;20041;-75
2023/03/02 04:07:45;;;;;;;5.00;2.60;;;;;;;0.75;58.10;100406.22;6246894;28;20048;-75
2023/03/02 04:10:47;;;;;;;3.13;2.53;;;;;;;0.76;58.96;100405.31;6229489;28;20069;-75
2023/03/02 04:13:48;;;;;;;4.53;2.70;;;;;;;0.77;58.21;100396.75;6229401;28;20051;-75
2023/03/02 04:16:50;;;;;;;2.15;1.90;;;;;;;0.75;58.96;100399.34;6229385;28;20042;-75
2023/03/02 04:19:53;;;;;;;7.18;2.75;;;;;;;0.85;58.25;100405.19;6246858;28;20481;-75
2023/03/02 04:22:56;;;;;;;7.85;2.72;;;;;;;0.84;59.23;100403.47;6246634;28;20381;-75
2023/03/02 04:25:56;;;;;;;5.07;2.15;;;;;;;0.77;58.81;100401.91;6229100;28;20048;-75
2023/03/02 04:28:57;;;;;;;3.65;2.20;;;;;;;0.67;59.18;100405.47;6229014;28;20049;-75
2023/03/02 04:31:58;;;;;;;10.55;3.28;;;;;;;0.55;59.02;100397.06;6229022;28;20085;-75
2023/03/02 04:34:59;;;;;;;6.75;3.72;;;;;;;0.55;59.14;100393.66;6228733;28;20050;-75
2023/03/02 04:38:00;;;;;;;4.25;2.13;;;;;;;0.53;59.45;100391.09;6246656;28;20041;-75
2023/03/02 04:41:02;;;;;;;5.75;2.38;;;;;;;0.54;59.26;100400.50;6228764;28;20117;-75
2023/03/02 04:44:03;;;;;;;3.70;1.70;;;;;;;0.51;59.95;100392.00;6228881;28;20045;-75
2023/03/02 04:47:06;;;;;;;10.40;3.00;;;;;;;0.60;59.55;100391.88;6228668;28;20298;-75
2023/03/02 04:50:09;;;;;;;1.92;1.58;;;;;;;0.55;59.93;100398.78;6228577;28;20041;-75
2023/03/02 04:53:11;;;;;;;3.58;2.38;;;;;;;0.51;59.90;100397.13;6228672;28;20042;-75
2023/03/02 04:56:11;;;;;;;8.48;2.30;;;;;;;0.45;60.17;100395.50;6246032;28;20053;-75
2023/03/02 04:59:13;;;;;;;5.85;2.83;;;;;;;0.47;61.14;100393.75;6228522;28;20170;-75
2023/03/02 05:02:17;;;;;;;3.55;1.92;;;;;;;0.42;60.50;100394.72;6228220;28;20127;-71
2023/03/02 05:05:21;;;;;;;2.78;2.30;;;;;;;0.38;60.95;100397.31;6244676;28;20049;-71
2023/03/02 05:08:23;;;;;;;3.72;2.05;;;;;;;0.30;61.18;100391.44;6227459;28;20044;-71
2023/03/02 05:11:27;;;;;;;4.05;2.00;;;;;;;0.41;60.97;100398.97;6227418;28;20045;-71
2023/03/02 05:14:29;;;;;;;2.92;1.90;;;;;;;0.44;61.23;100406.66;6227618;28;20048;-71
2023/03/02 05:17:29;;;;;;;3.38;2.53;;;;;;;0.55;61.17;100407.34;6227767;28;20049;-71
2023/03/02 05:20:31;;;;;;;5.95;2.58;;;;;;;0.58;61.41;100403.91;6227576;28;20139;-70
2023/03/02 05:23:33;;;;;;;11.00;3.05;;;;;;;0.51;61.69;100413.38;6226851;28;20146;-70
2023/03/02 05:26:34;;;;;;;5.60;2.47;;;;;;;0.57;61.85;100410.72;6244184;28;20120;-71
2023/03/02 05:29:35;;;;;;;6.88;3.45;;;;;;;0.60;61.37;100415.00;6226586;28;20077;-70
2023/03/02 05:32:35;;;;;;;7.45;2.53;;;;;;;0.45;61.08;100417.75;6226595;28;20446;-70
2023/03/02 05:35:37;;;;;;;4.30;3.03;;;;;;;0.53;61.18;100414.22;6259259;28;20061;-70
2023/03/02 05:38:38;;;;;;;2.10;1.60;;;;;;;0.63;61.30;100424.38;6226728;28;20431;-70
2023/03/02 05:41:39;;;;;;;5.55;3.70;;;;;;;0.73;61.22;100431.91;6243861;28;20048;-70
2023/03/02 05:44:40;;;;;;;7.85;3.58;;;;;;;0.70;61.13;100425.97;6243852;28;20041;-70
2023/03/02 05:47:40;;;;;;;7.28;2.95;;;;;;;0.75;60.84;100425.03;6226340;28;20057;-70
2023/03/02 05:50:45;;;;;;;3.33;2.05;;;;;;;0.76;60.84;100420.72;6243627;28;20045;-70
2023/03/02 05:53:46;;;;;;;9.20;2.88;;;;;;;0.94;60.44;100433.31;6243768;28;20052;-70
2023/03/02 05:56:47;;;;;;;4.57;3.08;;;;;;;0.96;60.43;100438.44;6241692;28;20046;-70
2023/03/02 05:59:49;;;;;;;8.80;2.88;;;;;;;1.05;60.55;100435.72;6243166;28;20405;-71
2023/03/02 06:02:50;;;;;;;5.45;2.63;;;;;;;1.22;59.97;100440.59;6243040;28;20066;-71
2023/03/02 06:05:51;;;;;;;3.10;2.15;;;;;;;1.20;59.43;100435.47;6242967;28;20404;-70
2023/03/02 06:08:52;;;;;;;2.78;2.25;;;;;;;1.28;59.62;100434.50;6225336;28;20485;-70
2023/03/02 06:11:53;;;;;;;3.88;2.40;;;;;;;1.38;59.73;100442.03;6243277;28;20477;-70
2023/03/02 06:14:53;;;;;;;3.53;1.88;;;;;;;1.43;59.17;100434.25;6243307;28;20045;-71
2023/03/02 06:17:57;;;;;;;7.78;3.88;;;;;;;1.41;59.14;100431.69;6243330;28;20050;-71
2023/03/02 06:20:58;;;;;;;3.03;2.75;;;;;;;1.53;58.83;100445.22;6225708;28;20507;-70
2023/03/02 06:23:59;;;;;;;6.43;3.42;;;;;;;1.53;59.08;100443.50;6243117;28;20038;-70
2023/03/02 06:27:00;;;;;;;3.97;2.58;;;;;;;1.57;58.63;100445.13;6225488;28;20082;-70
2023/03/02 06:30:01;;;;;;;10.60;4.05;;;;;;;1.69;58.04;100440.63;6225413;28;20041;-70
2023/03/02 06:33:02;;;;;;;6.05;3.17;;;;;;;1.78;58.55;100446.47;6242917;28;20038;-72
2023/03/02 06:36:02;;;;;;;4.15;2.25;;;;;;;1.68;58.32;100444.09;6242940;28;20096;-72
2023/03/02 06:39:14;;;;;;;8.63;2.90;;;;;;;1.86;58.07;100448.91;6243010;28;20041;-70
2023/03/02 06:42:15;;;;;;;2.53;2.00;;;;;;;1.87;58.53;100440.28;6242982;28;20485;-75
2023/03/02 06:45:20;;;;;;;6.57;2.67;;;;;;;2.20;57.47;100446.53;6243940;28;20416;-75
2023/03/02 06:48:23;;;;;;;2.65;2.38;;;;;;;2.41;57.59;100441.81;6243925;28;20045;-76
2023/03/02 06:51:23;;;;;;;11.70;3.80;;;;;;;2.60;56.97;100437.09;6226190;28;20161;-76
2023/03/02 06:54:24;;;;;;;5.53;3.45;;;;;;;2.88;56.29;100447.59;6243508;28;20045;-75
2023/03/02 06:57:34;;;;;;;6.25;3.70;;;;;;;3.01;56.37;100430.16;6240835;28;20094;-75
2023/03/02 07:00:35;;;;;;;3.20;2.45;;;;;;;3.17;55.64;100439.22;6221075;28;20042;-75
2023/03/02 07:03:36;;;;;;;5.07;2.67;;;;;;;3.31;55.56;100431.13;6217426;28;20045;-75
2023/03/02 07:06:37;;;;;;;7.85;3.53;;;;;;;3.51;55.67;100440.09;6201856;28;20095;-75
2023/03/02 07:09:38;;;;;;;5.47;2.50;;;;;;;3.51;56.20;100438.34;6205679;28;20042;-75
2023/03/02 07:12:40;;;;;;;9.45;3.58;;;;;;;3.58;55.84;100436.44;6223295;28;20042;-76
2023/03/02 07:15:40;;;;;;;6.78;3.05;;;;;;;3.76;56.05;100432.56;6206034;28;20073;-75
2023/03/02 07:18:41;;;;;;;3.58;2.42;;;;;;;3.88;56.01;100429.63;6205989;28;20485;-75
2023/03/02 07:21:42;;;;;;;5.00;3.25;;;;;;;3.87;56.26;100434.84;6205905;28;20045;-75
2023/03/02 07:24:43;;;;;;;7.75;3.70;;;;;;;3.99;56.08;100431.91;6223242;28;20076;-75
2023/03/02 07:27:44;;;;;;;7.30;3.33;;;;;;;4.06;56.12;100430.00;6223071;28;20113;-76
2023/03/02 07:30:45;;;;;;;8.93;3.95;;;;;;;4.07;56.11;100432.53;6322397;27;20043;-76
2023/03/02 07:33:48;;;;;;;2.95;2.05;;;;;;;4.30;56.07;100433.63;6319306;28;20052;-76
2023/03/02 07:36:48;;;;;;;5.75;2.75;;;;;;;4.41;55.64;100437.59;6254194;28;20053;-76
2023/03/02 07:39:49;;;;;;;8.30;3.72;;;;;;;4.50;55.67;100436.47;6272156;28;20072;-76
2023/03/02 07:42:50;;;;;;;5.13;2.92;;;;;;;4.42;56.90;100435.84;6254160;28;20051;-75
2023/03/02 07:45:51;;;;;;;6.05;3.25;;;;;;;4.55;56.33;100431.16;6285490;28;20036;-75
2023/03/02 07:48:52;;;;;;;7.43;3.38;;;;;;;4.88;56.03;100431.88;6350947;28;20460;-70
2023/03/02 07:51:53;;;;;;;9.48;3.90;;;;;;;5.17;56.17;100427.53;6350567;28;20065;-71
2023/03/02 07:54:54;;;;;;;6.47;3.72;;;;;;;5.29;56.24;100427.09;6350024;28;20134;-70
2023/03/02 07:57:55;;;;;;;7.88;2.78;;;;;;;5.30;56.67;100426.22;6350101;28;20046;-71
2023/03/02 08:00:56;;;;;;;8.48;3.22;;;;;;;5.50;56.20;100428.13;6350030;28;20039;-70
2023/03/02 08:03:56;;;;;;;5.65;3.10;;;;;;;5.68;56.75;100433.56;6290990;28;20481;-71
2023/03/02 08:06:57;;;;;;;7.95;3.22;;;;;;;5.65;57.03;100435.38;6245983;28;20045;-71
2023/03/02 08:09:59;;;;;;;6.15;3.70;;;;;;;6.05;57.21;100431.41;6245557;28;20443;-71
2023/03/02 08:13:01;;;;;;;6.22;3.85;;;;;;;6.16;55.59;100427.59;6245869;28;20044;-71
2023/03/02 08:16:03;;;;;;;5.60;3.35;;;;;;;6.30;55.59;100427.06;6245806;28;20046;-71
2023/03/02 08:19:04;;;;;;;7.70;3.35;;;;;;;6.19;55.42;100412.75;6227858;28;20057;-71
2023/03/02 08:22:05;;;;;;;4.20;2.95;;;;;;;6.37;56.11;100425.94;6260976;28;20045;-71
2023/03/02 08:25:07;;;;;;;8.05;3.58;;;;;;;6.35;56.01;100425.16;6260666;28;20042;-72
2023/03/02 08:28:07;;;;;;;10.55;3.78;;;;;;;6.47;56.10;100419.50;6245574;28;20069;-71
2023/03/02 08:31:09;;;;;;;12.07;4.50;;;;;;;6.48;55.18;100422.94;6227962;28;20046;-72
2023/03/02 08:34:10;;;;;;;8.85;3.75;;;;;;;6.68;55.33;100425.59;6246400;28;20048;-76
2023/03/02 08:37:11;;;;;;;8.48;3.58;;;;;;;6.87;55.38;100425.72;6246616;28;20497;-76
2023/03/02 08:40:12;;;;;;;5.80;3.13;;;;;;;6.92;54.37;100423.81;6229333;28;20042;-76
2023/03/02 08:43:17;;;;;;;11.40;4.75;;;;;;;7.35;54.65;100411.66;6247046;28;20076;-76
2023/03/02 08:46:19;;;;;;;7.28;4.03;;;;;;;7.60;53.12;100424.44;6245915;28;20413;-71
2023/03/02 08:49:20;;;;;;;8.02;3.85;;;;;;;7.57;53.15;100418.53;6244952;28;20041;-72
2023/03/02 08:52:20;;;;;;;5.72;3.65;;;;;;;7.79;54.18;100415.88;6227438;28;20037;-72
2023/03/02 08:55:21;;;;;;;15.68;4.28;;;;;;;7.94;51.79;100412.56;6244509;28;20413;-71
2023/03/02 08:58:22;;;;;;;8.82;4.13;;;;;;;8.42;51.28;100408.72;6245561;28;20087;-76
2023/03/02 09:01:27;;;;;;;8.90;3.05;;;;;;;8.63;52.27;100403.44;6228730;28;20120;-72
2023/03/02 09:04:30;;;;;;;7.55;3.83;;;;;;;9.03;50.25;100414.50;6227499;28;20041;-72
2023/03/02 09:07:31;;;;;;;8.20;4.03;;;;;;;9.31;50.40;100415.72;6227117;28;20124;-71
2023/03/02 09:10:33;;;;;;;10.77;3.92;;;;;;;9.52;50.30;100414.66;6231031;28;20045;-76
2023/03/02 09:13:35;;;;;;;8.35;3.55;;;;;;;9.44;49.37;100412.44;6230704;28;20041;-77
2023/03/02 09:16:36;;;;;;;8.07;4.18;;;;;;;9.71;49.10;100419.78;6230643;28;20049;-76
2023/03/02 09:19:40;;;;;;;8.93;3.92;;;;;;;9.53;49.16;100416.34;6229959;28;20046;-77
2023/03/02 09:22:47;;;;;;;6.15;3.55;;;;;;;9.75;49.94;100410.03;6247149;28;20110;-77
2023/03/02 09:25:49;;;;;;;9.55;5.10;;;;;;;10.19;51.17;100407.72;6248241;28;20389;-77
2023/03/02 09:28:50;;;;;;;6.72;3.70;;;;;;;10.48;50.40;100402.72;6230693;28;20121;-77
2023/03/02 09:31:51;;;;;;;10.85;4.28;;;;;;;10.78;50.71;100407.13;6245219;28;20037;-71
2023/03/02 09:34:51;;;;;;;11.75;4.78;;;;;;;10.82;49.73;100399.03;6244082;28;20147;-71
2023/03/02 09:37:52;;;;;;;7.85;3.70;;;;;;;10.51;48.18;100399.09;6226209;28;20056;-71
2023/03/02 09:41:17;;;;;;;7.63;4.18;;;;;;;10.57;48.43;100396.97;6244143;28;20471;-71
2023/03/02 09:44:59;;;;;;;5.72;3.63;;;;;;;10.78;48.72;100407.13;6243910;28;20386;-71
2023/03/02 09:48:00;;;;;;;5.40;3.60;;;;;;;11.27;48.13;100399.94;6237874;28;20084;-72
2023/03/02 09:51:19;;;;;;;6.75;3.95;;;;;;;10.60;48.78;100390.72;6226564;28;20493;-72
2023/03/02 09:54:23;;;;;;;6.60;3.88;;;;;;;11.21;48.25;100394.25;6243326;28;20041;-72
2023/03/02 09:57:31;;;;;;;9.45;3.97;;;;;;;11.32;49.35;100393.59;6226320;28;20076;-72
2023/03/02 10:00:39;;;;;;;12.10;5.50;;;;;;;11.69;49.40;100395.72;6250880;28;20461;-77
2023/03/02 10:03:46;;;;;;;4.35;3.20;;;;;;;11.34;47.88;100389.97;6253168;28;20056;-77
2023/03/02 10:07:13;;;;;;;5.88;3.60;;;;;;;11.48;47.37;100384.75;6234069;28;20041;-77
2023/03/02 10:10:16;;;;;;;6.55;3.72;;;;;;;11.96;48.94;100387.16;6251445;28;20076;-72
2023/03/02 10:13:21;;;;;;;9.13;3.13;;;;;;;12.42;47.55;100381.69;6243678;28;20056;-71
2023/03/02 10:16:37;;;;;;;6.32;3.50;;;;;;;12.14;46.90;100384.34;6226173;28;20052;-73
2023/03/02 10:19:45;;;;;;;6.72;3.38;;;;;;;12.36;49.18;100374.22;6244944;28;20064;-77
2023/03/02 10:22:59;;;;;;;10.63;4.18;;;;;;;12.64;47.96;100390.75;6251669;28;20045;-77
2023/03/02 10:26:06;;;;;;;6.13;3.67;;;;;;;12.83;47.14;100377.34;6234202;28;20119;-77
2023/03/02 10:29:29;;;;;;;9.60;3.50;;;;;;;12.62;45.94;100375.19;6233091;28;20060;-77
2023/03/02 10:32:36;;;;;;;;;;;;;;;12.52;46.89;100376.69;6257464;28;20409;-77
2023/03/02 10:35:37;;;;;;;11.70;3.67;;;;;;;12.96;48.26;100370.34;6273680;28;20371;-77
2023/03/02 10:38:40;;;;;;;9.88;4.15;;;;;;;13.32;48.47;100376.72;6257302;28;20431;-77
2023/03/02 10:41:52;;;;;;;7.20;4.30;;;;;;;13.57;46.47;100378.53;6232116;28;20484;-71
2023/03/02 10:45:07;;;;;;;7.97;4.22;;;;;;;13.51;47.67;100373.72;6229774;28;20120;-71
2023/03/02 10:48:10;;;;;;;6.38;3.70;;;;;;;13.42;46.17;100366.44;6231830;28;20121;-77
2023/03/02 10:51:21;;;;;;;10.40;4.70;;;;;;;13.55;46.33;100356.81;6233682;28;20047;-71
2023/03/02 10:54:24;;;;;;;9.30;3.83;;;;;;;13.75;46.25;100351.97;6247213;28;20044;-71
2023/03/02 10:57:57;;;;;;;6.43;3.30;;;;;;;13.86;47.31;100345.03;6247361;28;20049;-71
2023/03/02 11:01:02;;;;;;;4.93;2.83;;;;;;;13.78;44.65;100342.13;6230966;28;20065;-71
2023/03/02 11:04:03;;;;;;;4.57;3.08;;;;;;;13.42;44.53;100340.25;6246945;28;20042;-72
2023/03/02 11:07:11;;;;;;;5.43;3.00;;;;;;;13.14;45.39;100338.63;6251493;28;20129;-77
2023/03/02 11:10:28;;;;;;;8.25;3.80;;;;;;;12.97;46.21;100339.75;6251650;28;20034;-78
2023/03/02 11:13:28;;;;;;;6.50;3.40;;;;;;;13.57;48.24;100333.97;6250036;28;20069;-72
2023/03/02 11:16:31;;;;;;;7.15;3.53;;;;;;;13.99;45.61;100329.28;6249648;28;20041;-78
2023/03/02 11:19:38;;;;;;;5.18;3.30;;;;;;;13.85;46.01;100324.16;6251898;28;20053;-78
2023/03/02 11:22:48;;;;;;;5.70;3.40;;;;;;;13.83;44.73;100315.56;6254202;28;20041;-78
2023/03/02 11:26:05;;;;;;;6.22;3.03;;;;;;;13.45;47.03;100319.09;6234150;28;20047;-78
2023/03/02 11:29:13;;;;;;;5.07;2.80;;;;;;;13.72;46.10;100318.94;6234099;28;20074;-78
2023/03/02 11:32:27;;;;;;;10.77;2.80;;;;;;;13.85;44.90;100311.03;6251924;28;20122;-78
2023/03/02 11:35:36;;;;;;;8.77;3.10;;;;;;;13.90;44.54;100314.19;6247215;28;20046;-74
2023/03/02 11:38:50;;;;;;;9.77;3.67;;;;;;;14.16;45.47;100307.06;6258817;28;20042;-78
2023/03/02 11:41:52;;;;;;;6.40;3.45;;;;;;;14.22;45.68;100304.00;6260668;28;20041;-78
2023/03/02 11:44:56;;;;;;;7.15;3.10;;;;;;;14.19;44.72;100303.41;6260020;28;20094;-78
2023/03/02 11:47:57;;;;;;;4.03;2.80;;;;;;;14.36;44.86;100297.75;6239753;28;20069;-78
2023/03/02 11:51:13;;;;;;;6.18;2.92;;;;;;;14.65;46.48;100294.81;6258507;28;20412;-78
2023/03/02 11:54:35;;;;;;;4.72;2.50;;;;;;;14.74;44.40;100295.91;6237463;28;20049;-72
2023/03/02 11:57:39;;;;;;;6.47;3.30;;;;;;;14.87;45.09;100288.81;6246157;28;20069;-72
2023/03/02 12:00:42;;;;;;;7.57;3.58;;;;;;;14.74;43.74;100280.97;6246255;28;20038;-72
2023/03/02 12:03:46;;;;;;;6.97;2.58;;;;;;;14.57;45.34;100278.78;6228753;28;20076;-72
2023/03/02 12:06:47;;;;;;;10.27;2.88;;;;;;;14.29;44.60;100278.19;6252909;28;20042;-78
2023/03/02 12:10:08;;;;;;;9.15;2.60;;;;;;;14.00;45.81;100285.50;6254861;28;20041;-78
2023/03/02 12:13:14;;;;;;;6.85;2.67;;;;;;;13.99;45.96;100283.84;6231967;28;20091;-72
2023/03/02 12:16:22;;;;;;;6.60;2.83;;;;;;;13.72;47.36;100277.00;6245726;28;20097;-72
2023/03/02 12:19:26;;;;;;;3.80;2.60;;;;;;;13.30;46.67;100274.63;6245540;28;20091;-72
2023/03/02 12:22:33;;;;;;;5.22;2.72;;;;;;;13.60;46.10;100262.94;6228162;28;20048;-72
2023/03/02 12:25:49;;;;;;;2.85;2.05;;;;;;;14.03;45.44;100278.25;6230061;28;20045;-78
2023/03/02 12:29:09;;;;;;;7.63;1.92;;;;;;;14.23;44.52;100268.94;6232475;28;20042;-78
2023/03/02 12:32:29;;;;;;;2.75;2.10;;;;;;;14.28;43.96;100261.56;6233188;28;20496;-78
2023/03/02 12:35:32;;;;;;;5.82;3.25;;;;;;;14.30;45.13;100270.16;6251201;28;20497;-78
2023/03/02 12:38:40;;;;;;;5.82;2.10;;;;;;;14.17;44.57;100264.16;6234413;28;20045;-78
2023/03/02 12:42:17;;;;;;;4.05;2.42;;;;;;;13.62;45.70;100265.47;6250943;28;20045;-78
2023/03/02 12:45:43;;;;;;;3.20;2.03;;;;;;;13.64;44.84;100256.53;6251462;28;20041;-78
2023/03/02 12:49:03;;;;;;;6.50;3.22;;;;;;;13.96;45.52;100265.69;6233092;28;20041;-78
2023/03/02 12:52:19;;;;;;;3.03;2.20;;;;;;;13.98;44.39;100254.16;6251223;28;20037;-78
2023/03/02 12:55:20;;;;;;;3.45;2.30;;;;;;;13.87;44.58;100243.59;6231150;28;20041;-78
2023/03/02 12:58:24;;;;;;;6.03;2.97;;;;;;;14.22;44.79;100253.31;6230908;28;20508;-78
2023/03/02 13:01:30;;;;;;;5.45;2.40;;;;;;;14.35;44.71;100245.38;6240055;28;20053;-78
2023/03/02 13:04:31;;;;;;;6.28;2.50;;;;;;;14.38;43.49;100239.91;6240437;28;20041;-77
2023/03/02 13:07:46;;;;;;;5.15;2.30;;;;;;;14.49;43.34;100237.31;6239945;28;20097;-78
2023/03/02 13:10:56;;;;;;;6.18;1.98;;;;;;;14.44;44.00;100236.81;6240425;28;20128;-78
2023/03/02 13:13:59;;;;;;;7.28;2.40;;;;;;;14.50;44.80;100239.00;6256847;28;20046;-78
2023/03/02 13:17:04;;;;;;;5.20;3.20;;;;;;;14.61;44.58;100225.91;6238732;28;20408;-78
2023/03/02 13:20:13;;;;;;;6.28;2.80;;;;;;;14.52;43.30;100227.41;6255717;28;20038;-78
2023/03/02 13:23:19;;;;;;;4.70;2.40;;;;;;;14.43;43.92;100224.63;6255731;28;20053;-78
2023/03/02 13:26:39;;;;;;;5.05;2.88;;;;;;;14.59;43.54;100216.50;6254576;28;20102;-78
2023/03/02 13:29:42;;;;;;;26.45;16.20;;;;;;;14.26;43.05;100224.09;6253756;28;20401;-78
2023/03/02 13:32:44;;;;;;;13.77;8.93;;;;;;;14.41;43.83;100213.41;6254128;28;20065;-78
2023/03/02 13:35:46;;;;;;;9.43;4.03;;;;;;;14.42;44.96;100220.34;6236237;28;20420;-78
2023/03/02 13:38:51;;;;;;;4.45;2.47;;;;;;;14.49;43.98;100214.50;6235179;28;20557;-78
2023/03/02 13:41:55;;;;;;;5.00;2.38;;;;;;;14.76;43.79;100216.03;6254481;28;20045;-78
2023/03/02 13:44:56;;;;;;;7.30;2.40;;;;;;;14.68;43.79;100211.41;6253179;28;20049;-78
2023/03/02 13:48:00;;;;;;;5.88;2.20;;;;;;;14.82;43.53;100199.81;6253711;28;20400;-78
2023/03/02 13:51:20;;;;;;;3.22;2.08;;;;;;;14.65;43.00;100206.34;6253824;28;20124;-78
2023/03/02 13:54:27;;;;;;;3.95;2.17;;;;;;;14.50;42.98;100200.44;6235090;28;20048;-78
2023/03/02 13:57:31;;;;;;;6.63;2.40;;;;;;;14.25;43.52;100205.88;6250092;28;20056;-72
2023/03/02 14:00:34;;;;;;;10.95;2.70;;;;;;;14.50;43.40;100199.63;6226314;28;20118;-71
2023/03/02 14:03:35;;;;;;;14.32;3.30;;;;;;;14.51;43.91;100202.09;6230604;28;20082;-78
2023/03/02 14:06:36;;;;;;;6.05;2.92;;;;;;;14.49;44.44;100196.13;6227256;28;20041;-71
2023/03/02 14:09:36;;;;;;;8.23;2.33;;;;;;;14.35;43.47;100188.47;6243553;28;20098;-72
2023/03/02 14:12:40;;;;;;;8.75;2.78;;;;;;;14.11;44.33;100191.13;6243414;28;20125;-72
2023/03/02 14:15:46;;;;;;;3.75;2.05;;;;;;;14.04;44.54;100188.13;6243566;28;20553;-72
2023/03/02 14:18:49;;;;;;;3.65;2.22;;;;;;;14.10;44.70;100186.81;6243031;28;20037;-71
2023/03/02 14:21:52;;;;;;;5.70;2.60;;;;;;;14.12;44.13;100179.66;6225837;28;20052;-70
2023/03/02 14:24:52;;;;;;;2.85;1.88;;;;;;;14.08;44.37;100180.84;6225619;28;20102;-70